sensor_id;sensor_type;location;lat;lon;timestamp;P1;durP1;ratioP1;P2;durP2;ratioP2
4248;SDS011;8404;48.752;12.922;2022-09-23T00:01:47;5.15;;;4.65;;
4248;SDS011;8404;48.752;12.922;2022-09-23T00:04:15;6.53;;;5.13;;
4248;SDS011;8404;48.752;12.922;2022-09-23T00:06:44;6.13;;;5.53;;
4248;SDS011;8404;48.752;12.922;2022-09-23T00:09:12;6.68;;;5.75;;
4248;SDS011;8404;48.752;12.922;2022-09-23T00:11:41;6.70;;;6.00;;
4248;SDS011;8404;48.752;12.922;2022-09-23T00:14:11;6.88;;;6.07;;
4248;SDS011;8404;48.752;12.922;2022-09-23T00:16:39;6.75;;;6.00;;
4248;SDS011;8404;48.752;12.922;2022-09-23T00:19:07;6.68;;;5.53;;
4248;SDS011;8404;48.752;12.922;2022-09-23T00:21:35;7.43;;;5.95;;
4248;SDS011;8404;48.752;12.922;2022-09-23T00:24:03;6.15;;;5.25;;
4248;SDS011;8404;48.752;12.922;2022-09-23T00:26:34;7.00;;;6.28;;
4248;SDS011;8404;48.752;12.922;2022-09-23T00:29:03;6.28;;;5.45;;
4248;SDS011;8404;48.752;12.922;2022-09-23T00:31:31;5.75;;;5.25;;
4248;SDS011;8404;48.752;12.922;2022-09-23T00:33:59;5.13;;;4.57;;
4248;SDS011;8404;48.752;12.922;2022-09-23T00:36:28;5.32;;;4.82;;
4248;SDS011;8404;48.752;12.922;2022-09-23T00:38:57;5.38;;;4.88;;
4248;SDS011;8404;48.752;12.922;2022-09-23T00:41:26;4.75;;;4.20;;
4248;SDS011;8404;48.752;12.922;2022-09-23T00:43:54;4.88;;;4.43;;
4248;SDS011;8404;48.752;12.922;2022-09-23T00:46:26;4.95;;;4.20;;
4248;SDS011;8404;48.752;12.922;2022-09-23T00:49:18;5.13;;;4.15;;
4248;SDS011;8404;48.752;12.922;2022-09-23T00:52:11;4.97;;;4.45;;
4248;SDS011;8404;48.752;12.922;2022-09-23T00:54:43;4.93;;;4.38;;
4248;SDS011;8404;48.752;12.922;2022-09-23T00:57:32;6.18;;;4.05;;
4248;SDS011;8404;48.752;12.922;2022-09-23T01:00:03;6.88;;;4.78;;
4248;SDS011;8404;48.752;12.922;2022-09-23T01:02:33;5.00;;;4.22;;
4248;SDS011;8404;48.752;12.922;2022-09-23T01:05:03;4.63;;;4.15;;
4248;SDS011;8404;48.752;12.922;2022-09-23T01:07:33;4.22;;;3.83;;
4248;SDS011;8404;48.752;12.922;2022-09-23T01:10:01;5.13;;;4.63;;
4248;SDS011;8404;48.752;12.922;2022-09-23T01:12:41;6.18;;;4.85;;
4248;SDS011;8404;48.752;12.922;2022-09-23T01:15:21;5.20;;;4.18;;
4248;SDS011;8404;48.752;12.922;2022-09-23T01:18:17;5.30;;;4.57;;
4248;SDS011;8404;48.752;12.922;2022-09-23T01:21:10;5.80;;;4.80;;
4248;SDS011;8404;48.752;12.922;2022-09-23T01:23:54;4.50;;;3.97;;
4248;SDS011;8404;48.752;12.922;2022-09-23T01:26:52;4.93;;;4.43;;
4248;SDS011;8404;48.752;12.922;2022-09-23T01:30:02;5.47;;;4.90;;
4248;SDS011;8404;48.752;12.922;2022-09-23T01:32:52;5.88;;;4.43;;
4248;SDS011;8404;48.752;12.922;2022-09-23T01:35:35;5.60;;;4.38;;
4248;SDS011;8404;48.752;12.922;2022-09-23T01:38:37;3.78;;;3.35;;
4248;SDS011;8404;48.752;12.922;2022-09-23T01:41:32;3.58;;;3.20;;
4248;SDS011;8404;48.752;12.922;2022-09-23T01:44:31;3.22;;;2.42;;
4248;SDS011;8404;48.752;12.922;2022-09-23T01:47:05;4.90;;;3.10;;
4248;SDS011;8404;48.752;12.922;2022-09-23T01:49:40;3.70;;;3.25;;
4248;SDS011;8404;48.752;12.922;2022-09-23T01:52:13;3.78;;;3.17;;
4248;SDS011;8404;48.752;12.922;2022-09-23T01:54:45;3.47;;;2.90;;
4248;SDS011;8404;48.752;12.922;2022-09-23T01:57:21;3.47;;;2.88;;
4248;SDS011;8404;48.752;12.922;2022-09-23T01:59:54;3.60;;;2.38;;
4248;SDS011;8404;48.752;12.922;2022-09-23T02:02:37;4.55;;;3.45;;
4248;SDS011;8404;48.752;12.922;2022-09-23T02:05:16;8.40;;;5.40;;
4248;SDS011;8404;48.752;12.922;2022-09-23T02:08:08;13.35;;;8.30;;
4248;SDS011;8404;48.752;12.922;2022-09-23T02:10:41;11.30;;;8.55;;
4248;SDS011;8404;48.752;12.922;2022-09-23T02:13:13;12.70;;;8.55;;
4248;SDS011;8404;48.752;12.922;2022-09-23T02:15:45;11.25;;;7.32;;
4248;SDS011;8404;48.752;12.922;2022-09-23T02:18:37;8.27;;;6.07;;
4248;SDS011;8404;48.752;12.922;2022-09-23T02:21:10;7.10;;;6.13;;
4248;SDS011;8404;48.752;12.922;2022-09-23T02:23:42;8.83;;;6.63;;
4248;SDS011;8404;48.752;12.922;2022-09-23T02:26:16;7.32;;;5.10;;
4248;SDS011;8404;48.752;12.922;2022-09-23T02:29:07;5.97;;;5.22;;
4248;SDS011;8404;48.752;12.922;2022-09-23T02:32:03;6.67;;;5.37;;
4248;SDS011;8404;48.752;12.922;2022-09-23T02:35:00;4.47;;;4.07;;
4248;SDS011;8404;48.752;12.922;2022-09-23T02:37:40;4.25;;;3.55;;
4248;SDS011;8404;48.752;12.922;2022-09-23T02:40:15;6.57;;;4.85;;
4248;SDS011;8404;48.752;12.922;2022-09-23T02:42:51;7.95;;;5.95;;
4248;SDS011;8404;48.752;12.922;2022-09-23T02:45:25;8.00;;;5.68;;
4248;SDS011;8404;48.752;12.922;2022-09-23T02:47:55;5.57;;;4.85;;
4248;SDS011;8404;48.752;12.922;2022-09-23T02:50:27;5.20;;;4.70;;
4248;SDS011;8404;48.752;12.922;2022-09-23T02:52:58;6.25;;;5.10;;
4248;SDS011;8404;48.752;12.922;2022-09-23T02:55:27;6.38;;;5.65;;
4248;SDS011;8404;48.752;12.922;2022-09-23T02:58:16;5.63;;;4.78;;
4248;SDS011;8404;48.752;12.922;2022-09-23T03:03:54;5.27;;;4.77;;
4248;SDS011;8404;48.752;12.922;2022-09-23T03:06:36;6.00;;;4.57;;
4248;SDS011;8404;48.752;12.922;2022-09-23T03:09:14;5.15;;;4.65;;
4248;SDS011;8404;48.752;12.922;2022-09-23T03:11:52;5.22;;;4.72;;
4248;SDS011;8404;48.752;12.922;2022-09-23T03:14:47;4.97;;;4.47;;
4248;SDS011;8404;48.752;12.922;2022-09-23T03:17:20;5.13;;;3.90;;
4248;SDS011;8404;48.752;12.922;2022-09-23T03:20:16;4.97;;;4.47;;
4248;SDS011;8404;48.752;12.922;2022-09-23T03:23:11;5.53;;;4.90;;
4248;SDS011;8404;48.752;12.922;2022-09-23T03:25:44;5.50;;;4.20;;
4248;SDS011;8404;48.752;12.922;2022-09-23T03:28:34;5.50;;;4.93;;
4248;SDS011;8404;48.752;12.922;2022-09-23T03:31:03;5.23;;;4.60;;
4248;SDS011;8404;48.752;12.922;2022-09-23T03:33:32;4.60;;;4.13;;
4248;SDS011;8404;48.752;12.922;2022-09-23T03:36:20;4.10;;;3.70;;
4248;SDS011;8404;48.752;12.922;2022-09-23T03:39:13;4.00;;;3.43;;
4248;SDS011;8404;48.752;12.922;2022-09-23T03:42:11;6.82;;;4.95;;
4248;SDS011;8404;48.752;12.922;2022-09-23T03:44:44;4.53;;;4.13;;
4248;SDS011;8404;48.752;12.922;2022-09-23T03:47:32;5.13;;;4.23;;
4248;SDS011;8404;48.752;12.922;2022-09-23T03:50:00;4.30;;;3.90;;
4248;SDS011;8404;48.752;12.922;2022-09-23T03:52:28;3.90;;;3.50;;
4248;SDS011;8404;48.752;12.922;2022-09-23T03:55:15;4.07;;;3.67;;
4248;SDS011;8404;48.752;12.922;2022-09-23T03:57:45;4.00;;;3.60;;
4248;SDS011;8404;48.752;12.922;2022-09-23T04:00:14;4.00;;;3.60;;
4248;SDS011;8404;48.752;12.922;2022-09-23T04:02:42;3.50;;;3.20;;
4248;SDS011;8404;48.752;12.922;2022-09-23T04:05:11;3.90;;;3.50;;
4248;SDS011;8404;48.752;12.922;2022-09-23T04:07:41;4.03;;;3.50;;
4248;SDS011;8404;48.752;12.922;2022-09-23T04:10:09;3.63;;;3.23;;
4248;SDS011;8404;48.752;12.922;2022-09-23T04:12:38;3.67;;;3.00;;
4248;SDS011;8404;48.752;12.922;2022-09-23T04:15:08;3.60;;;3.23;;
4248;SDS011;8404;48.752;12.922;2022-09-23T04:17:37;3.17;;;2.80;;
4248;SDS011;8404;48.752;12.922;2022-09-23T04:20:05;3.50;;;3.17;;
4248;SDS011;8404;48.752;12.922;2022-09-23T04:22:34;3.83;;;3.43;;
4248;SDS011;8404;48.752;12.922;2022-09-23T04:25:04;3.83;;;3.40;;
4248;SDS011;8404;48.752;12.922;2022-09-23T04:27:33;3.83;;;3.43;;
4248;SDS011;8404;48.752;12.922;2022-09-23T04:30:03;3.83;;;3.43;;
4248;SDS011;8404;48.752;12.922;2022-09-23T04:32:33;3.53;;;3.17;;
4248;SDS011;8404;48.752;12.922;2022-09-23T04:35:01;3.93;;;3.33;;
4248;SDS011;8404;48.752;12.922;2022-09-23T04:37:30;3.80;;;3.37;;
4248;SDS011;8404;48.752;12.922;2022-09-23T04:39:58;3.33;;;2.83;;
4248;SDS011;8404;48.752;12.922;2022-09-23T04:42:27;3.70;;;3.03;;
4248;SDS011;8404;48.752;12.922;2022-09-23T04:44:55;3.17;;;2.80;;
4248;SDS011;8404;48.752;12.922;2022-09-23T04:47:24;3.23;;;2.83;;
4248;SDS011;8404;48.752;12.922;2022-09-23T04:49:53;4.20;;;3.40;;
4248;SDS011;8404;48.752;12.922;2022-09-23T04:52:25;4.47;;;3.60;;
4248;SDS011;8404;48.752;12.922;2022-09-23T04:54:53;4.07;;;3.70;;
4248;SDS011;8404;48.752;12.922;2022-09-23T04:57:40;4.70;;;4.03;;
4248;SDS011;8404;48.752;12.922;2022-09-23T05:00:27;5.17;;;4.20;;
4248;SDS011;8404;48.752;12.922;2022-09-23T05:02:55;6.30;;;4.63;;
4248;SDS011;8404;48.752;12.922;2022-09-23T05:05:25;5.00;;;4.23;;
4248;SDS011;8404;48.752;12.922;2022-09-23T05:08:11;4.73;;;4.33;;
4248;SDS011;8404;48.752;12.922;2022-09-23T05:10:58;4.28;;;3.88;;
4248;SDS011;8404;48.752;12.922;2022-09-23T05:13:46;3.83;;;3.43;;
4248;SDS011;8404;48.752;12.922;2022-09-23T05:16:15;3.80;;;3.13;;
4248;SDS011;8404;48.752;12.922;2022-09-23T05:18:44;3.33;;;3.03;;
4248;SDS011;8404;48.752;12.922;2022-09-23T05:21:16;3.60;;;3.10;;
4248;SDS011;8404;48.752;12.922;2022-09-23T05:23:47;3.83;;;3.53;;
4248;SDS011;8404;48.752;12.922;2022-09-23T05:26:20;5.23;;;4.73;;
4248;SDS011;8404;48.752;12.922;2022-09-23T05:28:50;5.70;;;5.10;;
4248;SDS011;8404;48.752;12.922;2022-09-23T05:31:19;5.30;;;4.30;;
4248;SDS011;8404;48.752;12.922;2022-09-23T05:33:49;6.07;;;4.40;;
4248;SDS011;8404;48.752;12.922;2022-09-23T05:36:20;5.57;;;4.90;;
4248;SDS011;8404;48.752;12.922;2022-09-23T05:38:48;5.53;;;4.30;;
4248;SDS011;8404;48.752;12.922;2022-09-23T05:41:17;4.27;;;3.73;;
4248;SDS011;8404;48.752;12.922;2022-09-23T05:43:48;5.17;;;4.23;;
4248;SDS011;8404;48.752;12.922;2022-09-23T05:46:17;4.43;;;4.00;;
4248;SDS011;8404;48.752;12.922;2022-09-23T05:49:08;7.03;;;3.90;;
4248;SDS011;8404;48.752;12.922;2022-09-23T05:51:38;4.33;;;3.87;;
4248;SDS011;8404;48.752;12.922;2022-09-23T05:54:07;5.40;;;4.00;;
4248;SDS011;8404;48.752;12.922;2022-09-23T05:56:35;4.67;;;4.17;;
4248;SDS011;8404;48.752;12.922;2022-09-23T05:59:03;4.83;;;4.27;;
4248;SDS011;8404;48.752;12.922;2022-09-23T06:01:33;5.03;;;3.70;;
4248;SDS011;8404;48.752;12.922;2022-09-23T06:04:04;3.97;;;3.53;;
4248;SDS011;8404;48.752;12.922;2022-09-23T06:06:35;5.60;;;4.27;;
4248;SDS011;8404;48.752;12.922;2022-09-23T06:09:24;7.67;;;5.27;;
4248;SDS011;8404;48.752;12.922;2022-09-23T06:12:11;7.17;;;6.13;;
4248;SDS011;8404;48.752;12.922;2022-09-23T06:14:58;6.13;;;5.53;;
4248;SDS011;8404;48.752;12.922;2022-09-23T06:17:44;6.28;;;5.50;;
4248;SDS011;8404;48.752;12.922;2022-09-23T06:20:15;5.73;;;5.00;;
4248;SDS011;8404;48.752;12.922;2022-09-23T06:22:43;6.22;;;5.57;;
4248;SDS011;8404;48.752;12.922;2022-09-23T06:25:16;6.22;;;5.00;;
4248;SDS011;8404;48.752;12.922;2022-09-23T06:28:06;5.72;;;4.68;;
4248;SDS011;8404;48.752;12.922;2022-09-23T06:30:57;6.63;;;5.00;;
4248;SDS011;8404;48.752;12.922;2022-09-23T06:33:44;6.40;;;5.80;;
4248;SDS011;8404;48.752;12.922;2022-09-23T06:36:31;6.60;;;5.18;;
4248;SDS011;8404;48.752;12.922;2022-09-23T06:39:28;5.90;;;5.30;;
4248;SDS011;8404;48.752;12.922;2022-09-23T06:41:57;7.07;;;4.97;;
4248;SDS011;8404;48.752;12.922;2022-09-23T06:44:25;5.70;;;5.18;;
4248;SDS011;8404;48.752;12.922;2022-09-23T06:46:54;5.63;;;5.05;;
4248;SDS011;8404;48.752;12.922;2022-09-23T06:49:22;5.85;;;5.10;;
4248;SDS011;8404;48.752;12.922;2022-09-23T06:51:50;5.65;;;4.88;;
4248;SDS011;8404;48.752;12.922;2022-09-23T06:54:18;6.25;;;5.65;;
4248;SDS011;8404;48.752;12.922;2022-09-23T06:56:45;5.53;;;5.03;;
4248;SDS011;8404;48.752;12.922;2022-09-23T06:59:15;6.05;;;5.20;;
4248;SDS011;8404;48.752;12.922;2022-09-23T07:02:02;6.53;;;5.90;;
4248;SDS011;8404;48.752;12.922;2022-09-23T07:04:30;7.00;;;6.05;;
4248;SDS011;8404;48.752;12.922;2022-09-23T07:06:58;6.60;;;5.72;;
4248;SDS011;8404;48.752;12.922;2022-09-23T07:09:26;11.20;;;6.65;;
4248;SDS011;8404;48.752;12.922;2022-09-23T07:12:13;6.47;;;5.88;;
4248;SDS011;8404;48.752;12.922;2022-09-23T07:15:01;6.75;;;6.03;;
4248;SDS011;8404;48.752;12.922;2022-09-23T07:17:48;6.88;;;6.28;;
4248;SDS011;8404;48.752;12.922;2022-09-23T07:20:34;7.13;;;6.30;;
4248;SDS011;8404;48.752;12.922;2022-09-23T07:23:21;7.75;;;6.68;;
4248;SDS011;8404;48.752;12.922;2022-09-23T07:26:08;7.60;;;6.22;;
4248;SDS011;8404;48.752;12.922;2022-09-23T07:28:37;8.45;;;7.65;;
4248;SDS011;8404;48.752;12.922;2022-09-23T07:31:07;7.93;;;7.20;;
4248;SDS011;8404;48.752;12.922;2022-09-23T07:33:37;9.18;;;8.38;;
4248;SDS011;8404;48.752;12.922;2022-09-23T07:36:10;8.90;;;8.00;;
4248;SDS011;8404;48.752;12.922;2022-09-23T07:38:40;9.07;;;7.88;;
4248;SDS011;8404;48.752;12.922;2022-09-23T07:41:12;7.90;;;6.82;;
4248;SDS011;8404;48.752;12.922;2022-09-23T07:43:42;7.88;;;6.93;;
4248;SDS011;8404;48.752;12.922;2022-09-23T07:46:12;7.25;;;6.25;;
4248;SDS011;8404;48.752;12.922;2022-09-23T07:48:42;7.70;;;7.00;;
4248;SDS011;8404;48.752;12.922;2022-09-23T07:51:12;8.05;;;6.93;;
4248;SDS011;8404;48.752;12.922;2022-09-23T07:53:45;8.70;;;7.72;;
4248;SDS011;8404;48.752;12.922;2022-09-23T07:56:13;8.88;;;7.85;;
4248;SDS011;8404;48.752;12.922;2022-09-23T07:58:44;8.23;;;6.68;;
4248;SDS011;8404;48.752;12.922;2022-09-23T08:01:27;8.48;;;7.20;;
4248;SDS011;8404;48.752;12.922;2022-09-23T08:03:57;7.95;;;6.85;;
4248;SDS011;8404;48.752;12.922;2022-09-23T08:06:26;8.45;;;7.03;;
4248;SDS011;8404;48.752;12.922;2022-09-23T08:08:55;6.95;;;6.25;;
4248;SDS011;8404;48.752;12.922;2022-09-23T08:11:24;6.90;;;6.18;;
4248;SDS011;8404;48.752;12.922;2022-09-23T08:14:12;7.07;;;6.38;;
4248;SDS011;8404;48.752;12.922;2022-09-23T08:17:02;6.18;;;5.50;;
4248;SDS011;8404;48.752;12.922;2022-09-23T08:19:49;6.18;;;5.57;;
4248;SDS011;8404;48.752;12.922;2022-09-23T08:22:36;6.05;;;5.45;;
4248;SDS011;8404;48.752;12.922;2022-09-23T08:25:04;6.30;;;5.70;;
4248;SDS011;8404;48.752;12.922;2022-09-23T08:27:35;6.13;;;5.15;;
4248;SDS011;8404;48.752;12.922;2022-09-23T08:30:04;5.88;;;4.85;;
4248;SDS011;8404;48.752;12.922;2022-09-23T08:32:35;5.85;;;5.03;;
4248;SDS011;8404;48.752;12.922;2022-09-23T08:35:03;4.85;;;4.25;;
4248;SDS011;8404;48.752;12.922;2022-09-23T08:37:31;4.55;;;4.03;;
4248;SDS011;8404;48.752;12.922;2022-09-23T08:39:59;5.55;;;4.45;;
4248;SDS011;8404;48.752;12.922;2022-09-23T08:42:29;5.35;;;3.95;;
4248;SDS011;8404;48.752;12.922;2022-09-23T08:44:59;4.95;;;3.90;;
4248;SDS011;8404;48.752;12.922;2022-09-23T08:47:32;5.90;;;3.70;;
4248;SDS011;8404;48.752;12.922;2022-09-23T08:50:11;4.30;;;3.53;;
4248;SDS011;8404;48.752;12.922;2022-09-23T08:52:43;5.00;;;3.45;;
4248;SDS011;8404;48.752;12.922;2022-09-23T08:55:17;3.78;;;3.38;;
4248;SDS011;8404;48.752;12.922;2022-09-23T08:57:59;4.32;;;3.72;;
4248;SDS011;8404;48.752;12.922;2022-09-23T09:00:52;3.67;;;3.03;;
4248;SDS011;8404;48.752;12.922;2022-09-23T09:03:31;3.53;;;2.90;;
4248;SDS011;8404;48.752;12.922;2022-09-23T09:06:03;3.78;;;3.25;;
4248;SDS011;8404;48.752;12.922;2022-09-23T09:08:31;4.03;;;3.30;;
4248;SDS011;8404;48.752;12.922;2022-09-23T09:11:03;3.25;;;2.90;;
4248;SDS011;8404;48.752;12.922;2022-09-23T09:13:33;3.90;;;3.38;;
4248;SDS011;8404;48.752;12.922;2022-09-23T09:16:15;5.63;;;3.13;;
4248;SDS011;8404;48.752;12.922;2022-09-23T09:19:16;3.65;;;3.00;;
4248;SDS011;8404;48.752;12.922;2022-09-23T09:21:47;3.80;;;3.10;;
4248;SDS011;8404;48.752;12.922;2022-09-23T09:24:21;4.07;;;3.00;;
4248;SDS011;8404;48.752;12.922;2022-09-23T09:26:56;4.20;;;2.85;;
4248;SDS011;8404;48.752;12.922;2022-09-23T09:29:26;3.45;;;2.63;;
4248;SDS011;8404;48.752;12.922;2022-09-23T09:32:07;3.33;;;2.80;;
4248;SDS011;8404;48.752;12.922;2022-09-23T09:34:44;4.35;;;3.20;;
4248;SDS011;8404;48.752;12.922;2022-09-23T09:37:19;3.03;;;2.35;;
4248;SDS011;8404;48.752;12.922;2022-09-23T09:39:51;4.68;;;2.90;;
4248;SDS011;8404;48.752;12.922;2022-09-23T09:42:22;4.00;;;2.28;;
4248;SDS011;8404;48.752;12.922;2022-09-23T09:44:54;2.83;;;2.20;;
4248;SDS011;8404;48.752;12.922;2022-09-23T09:47:27;3.80;;;2.67;;
4248;SDS011;8404;48.752;12.922;2022-09-23T09:50:14;3.55;;;2.75;;
4248;SDS011;8404;48.752;12.922;2022-09-23T09:52:47;4.63;;;2.78;;
4248;SDS011;8404;48.752;12.922;2022-09-23T09:55:23;5.97;;;3.05;;
4248;SDS011;8404;48.752;12.922;2022-09-23T09:57:53;4.60;;;2.92;;
4248;SDS011;8404;48.752;12.922;2022-09-23T10:00:34;3.03;;;2.38;;
4248;SDS011;8404;48.752;12.922;2022-09-23T10:03:19;5.25;;;2.28;;
4248;SDS011;8404;48.752;12.922;2022-09-23T10:05:54;3.05;;;2.40;;
4248;SDS011;8404;48.752;12.922;2022-09-23T10:08:24;3.45;;;2.40;;
4248;SDS011;8404;48.752;12.922;2022-09-23T10:10:59;2.60;;;1.90;;
4248;SDS011;8404;48.752;12.922;2022-09-23T10:13:29;3.38;;;2.00;;
4248;SDS011;8404;48.752;12.922;2022-09-23T10:15:58;3.85;;;2.38;;
4248;SDS011;8404;48.752;12.922;2022-09-23T10:18:29;4.20;;;3.00;;
4248;SDS011;8404;48.752;12.922;2022-09-23T10:21:05;3.47;;;2.55;;
4248;SDS011;8404;48.752;12.922;2022-09-23T10:23:37;2.70;;;2.35;;
4248;SDS011;8404;48.752;12.922;2022-09-23T10:26:07;3.10;;;2.03;;
4248;SDS011;8404;48.752;12.922;2022-09-23T10:28:47;2.72;;;2.20;;
4248;SDS011;8404;48.752;12.922;2022-09-23T10:31:20;3.00;;;2.17;;
4248;SDS011;8404;48.752;12.922;2022-09-23T10:33:51;3.97;;;2.13;;
4248;SDS011;8404;48.752;12.922;2022-09-23T10:36:26;3.92;;;1.90;;
4248;SDS011;8404;48.752;12.922;2022-09-23T10:39:01;3.25;;;2.20;;
4248;SDS011;8404;48.752;12.922;2022-09-23T10:41:47;3.78;;;2.38;;
4248;SDS011;8404;48.752;12.922;2022-09-23T10:44:45;4.30;;;1.92;;
4248;SDS011;8404;48.752;12.922;2022-09-23T10:47:47;3.00;;;1.52;;
4248;SDS011;8404;48.752;12.922;2022-09-23T10:50:29;3.47;;;1.88;;
4248;SDS011;8404;48.752;12.922;2022-09-23T10:53:09;2.38;;;1.88;;
4248;SDS011;8404;48.752;12.922;2022-09-23T10:55:51;4.35;;;1.88;;
4248;SDS011;8404;48.752;12.922;2022-09-23T10:58:47;3.63;;;1.87;;
4248;SDS011;8404;48.752;12.922;2022-09-23T11:01:37;2.50;;;1.52;;
4248;SDS011;8404;48.752;12.922;2022-09-23T11:04:22;2.85;;;1.75;;
4248;SDS011;8404;48.752;12.922;2022-09-23T11:07:09;2.35;;;1.52;;
4248;SDS011;8404;48.752;12.922;2022-09-23T11:10:00;3.03;;;1.90;;
4248;SDS011;8404;48.752;12.922;2022-09-23T11:13:06;4.20;;;2.38;;
4248;SDS011;8404;48.752;12.922;2022-09-23T11:15:47;1.88;;;1.60;;
4248;SDS011;8404;48.752;12.922;2022-09-23T11:21:37;3.20;;;2.05;;
4248;SDS011;8404;48.752;12.922;2022-09-23T11:24:19;2.20;;;1.75;;
4248;SDS011;8404;48.752;12.922;2022-09-23T11:27:09;3.88;;;2.13;;
4248;SDS011;8404;48.752;12.922;2022-09-23T11:29:50;3.63;;;1.95;;
4248;SDS011;8404;48.752;12.922;2022-09-23T11:32:29;2.65;;;1.60;;
4248;SDS011;8404;48.752;12.922;2022-09-23T11:35:18;2.45;;;1.77;;
4248;SDS011;8404;48.752;12.922;2022-09-23T11:37:50;4.35;;;1.92;;
4248;SDS011;8404;48.752;12.922;2022-09-23T11:40:25;3.90;;;1.80;;
4248;SDS011;8404;48.752;12.922;2022-09-23T11:43:00;3.15;;;2.15;;
4248;SDS011;8404;48.752;12.922;2022-09-23T11:45:33;2.72;;;1.95;;
4248;SDS011;8404;48.752;12.922;2022-09-23T11:48:07;2.30;;;1.50;;
4248;SDS011;8404;48.752;12.922;2022-09-23T11:50:40;1.40;;;1.02;;
4248;SDS011;8404;48.752;12.922;2022-09-23T11:53:14;2.55;;;1.42;;
4248;SDS011;8404;48.752;12.922;2022-09-23T11:55:50;1.90;;;1.17;;
4248;SDS011;8404;48.752;12.922;2022-09-23T11:58:28;2.00;;;1.00;;
4248;SDS011;8404;48.752;12.922;2022-09-23T12:01:03;2.33;;;1.20;;
4248;SDS011;8404;48.752;12.922;2022-09-23T12:03:38;3.20;;;1.20;;
4248;SDS011;8404;48.752;12.922;2022-09-23T12:06:15;2.63;;;1.60;;
4248;SDS011;8404;48.752;12.922;2022-09-23T12:08:48;1.88;;;1.00;;
4248;SDS011;8404;48.752;12.922;2022-09-23T12:11:22;1.88;;;1.10;;
4248;SDS011;8404;48.752;12.922;2022-09-23T12:13:59;3.30;;;1.20;;
4248;SDS011;8404;48.752;12.922;2022-09-23T12:16:41;1.40;;;1.02;;
4248;SDS011;8404;48.752;12.922;2022-09-23T12:19:32;1.95;;;1.30;;
4248;SDS011;8404;48.752;12.922;2022-09-23T12:22:32;2.35;;;1.45;;
4248;SDS011;8404;48.752;12.922;2022-09-23T12:28:13;1.67;;;1.08;;
4248;SDS011;8404;48.752;12.922;2022-09-23T12:30:47;2.33;;;1.40;;
4248;SDS011;8404;48.752;12.922;2022-09-23T12:33:19;1.75;;;1.20;;
4248;SDS011;8404;48.752;12.922;2022-09-23T12:35:50;1.90;;;1.30;;
4248;SDS011;8404;48.752;12.922;2022-09-23T12:38:21;1.63;;;1.17;;
4248;SDS011;8404;48.752;12.922;2022-09-23T12:40:52;1.75;;;0.98;;
4248;SDS011;8404;48.752;12.922;2022-09-23T12:43:31;2.42;;;1.30;;
4248;SDS011;8404;48.752;12.922;2022-09-23T12:46:18;2.17;;;1.20;;
4248;SDS011;8404;48.752;12.922;2022-09-23T12:48:57;1.75;;;1.00;;
4248;SDS011;8404;48.752;12.922;2022-09-23T12:51:28;1.15;;;0.70;;
4248;SDS011;8404;48.752;12.922;2022-09-23T13:00:22;1.75;;;0.80;;
4248;SDS011;8404;48.752;12.922;2022-09-23T13:02:59;2.17;;;0.80;;
4248;SDS011;8404;48.752;12.922;2022-09-23T13:05:46;1.63;;;0.80;;
4248;SDS011;8404;48.752;12.922;2022-09-23T13:08:35;1.00;;;0.60;;
4248;SDS011;8404;48.752;12.922;2022-09-23T13:11:06;0.85;;;0.50;;
4248;SDS011;8404;48.752;12.922;2022-09-23T13:13:44;0.93;;;0.60;;
4248;SDS011;8404;48.752;12.922;2022-09-23T13:16:19;1.45;;;0.80;;
4248;SDS011;8404;48.752;12.922;2022-09-23T13:18:51;1.88;;;0.68;;
4248;SDS011;8404;48.752;12.922;2022-09-23T13:24:36;0.60;;;0.57;;
4248;SDS011;8404;48.752;12.922;2022-09-23T13:27:12;1.27;;;0.80;;
4248;SDS011;8404;48.752;12.922;2022-09-23T13:29:49;1.13;;;0.80;;
4248;SDS011;8404;48.752;12.922;2022-09-23T13:32:20;1.48;;;0.60;;
4248;SDS011;8404;48.752;12.922;2022-09-23T13:34:57;1.15;;;0.60;;
4248;SDS011;8404;48.752;12.922;2022-09-23T13:37:29;0.90;;;0.55;;
4248;SDS011;8404;48.752;12.922;2022-09-23T13:40:06;1.95;;;0.93;;
4248;SDS011;8404;48.752;12.922;2022-09-23T13:42:37;1.08;;;0.70;;
4248;SDS011;8404;48.752;12.922;2022-09-23T13:45:11;1.40;;;0.70;;
4248;SDS011;8404;48.752;12.922;2022-09-23T13:47:42;1.13;;;0.50;;
4248;SDS011;8404;48.752;12.922;2022-09-23T13:50:17;0.75;;;0.50;;
4248;SDS011;8404;48.752;12.922;2022-09-23T13:52:50;1.05;;;0.60;;
4248;SDS011;8404;48.752;12.922;2022-09-23T13:55:24;1.55;;;0.65;;
4248;SDS011;8404;48.752;12.922;2022-09-23T13:57:58;2.22;;;0.77;;
4248;SDS011;8404;48.752;12.922;2022-09-23T14:00:31;1.63;;;0.68;;
4248;SDS011;8404;48.752;12.922;2022-09-23T14:03:14;2.25;;;0.70;;
4248;SDS011;8404;48.752;12.922;2022-09-23T14:05:45;0.80;;;0.45;;
4248;SDS011;8404;48.752;12.922;2022-09-23T14:08:15;0.85;;;0.47;;
4248;SDS011;8404;48.752;12.922;2022-09-23T14:10:43;0.82;;;0.60;;
4248;SDS011;8404;48.752;12.922;2022-09-23T14:13:13;1.17;;;0.68;;
4248;SDS011;8404;48.752;12.922;2022-09-23T14:15:51;2.90;;;0.95;;
4248;SDS011;8404;48.752;12.922;2022-09-23T14:18:25;1.15;;;0.68;;
4248;SDS011;8404;48.752;12.922;2022-09-23T14:20:58;1.58;;;0.88;;
4248;SDS011;8404;48.752;12.922;2022-09-23T14:23:27;1.58;;;0.80;;
4248;SDS011;8404;48.752;12.922;2022-09-23T14:25:56;1.63;;;0.80;;
4248;SDS011;8404;48.752;12.922;2022-09-23T14:28:26;1.33;;;0.60;;
4248;SDS011;8404;48.752;12.922;2022-09-23T14:30:55;1.80;;;0.70;;
4248;SDS011;8404;48.752;12.922;2022-09-23T14:33:25;1.10;;;0.60;;
4248;SDS011;8404;48.752;12.922;2022-09-23T14:35:55;0.90;;;0.60;;
4248;SDS011;8404;48.752;12.922;2022-09-23T14:38:28;1.13;;;0.70;;
4248;SDS011;8404;48.752;12.922;2022-09-23T14:41:17;1.77;;;0.80;;
4248;SDS011;8404;48.752;12.922;2022-09-23T14:43:50;1.10;;;0.60;;
4248;SDS011;8404;48.752;12.922;2022-09-23T14:46:21;1.00;;;0.50;;
4248;SDS011;8404;48.752;12.922;2022-09-23T14:48:54;1.02;;;0.60;;
4248;SDS011;8404;48.752;12.922;2022-09-23T14:54:21;2.38;;;0.60;;
4248;SDS011;8404;48.752;12.922;2022-09-23T14:57:23;0.65;;;0.50;;
4248;SDS011;8404;48.752;12.922;2022-09-23T14:59:54;0.82;;;0.57;;
4248;SDS011;8404;48.752;12.922;2022-09-23T15:02:28;1.55;;;0.60;;
4248;SDS011;8404;48.752;12.922;2022-09-23T15:05:12;1.10;;;0.82;;
4248;SDS011;8404;48.752;12.922;2022-09-23T15:07:47;1.15;;;0.82;;
4248;SDS011;8404;48.752;12.922;2022-09-23T15:10:18;1.90;;;0.68;;
4248;SDS011;8404;48.752;12.922;2022-09-23T15:12:50;1.27;;;0.90;;
4248;SDS011;8404;48.752;12.922;2022-09-23T15:15:21;2.72;;;0.82;;
4248;SDS011;8404;48.752;12.922;2022-09-23T15:17:53;1.17;;;0.70;;
4248;SDS011;8404;48.752;12.922;2022-09-23T15:20:29;1.40;;;0.77;;
4248;SDS011;8404;48.752;12.922;2022-09-23T15:22:58;3.45;;;0.80;;
4248;SDS011;8404;48.752;12.922;2022-09-23T15:25:30;1.00;;;0.60;;
4248;SDS011;8404;48.752;12.922;2022-09-23T15:28:01;1.27;;;0.80;;
4248;SDS011;8404;48.752;12.922;2022-09-23T15:30:42;1.52;;;0.75;;
4248;SDS011;8404;48.752;12.922;2022-09-23T15:33:11;0.90;;;0.60;;
4248;SDS011;8404;48.752;12.922;2022-09-23T15:35:41;5.97;;;1.30;;
4248;SDS011;8404;48.752;12.922;2022-09-23T15:38:14;1.23;;;0.68;;
4248;SDS011;8404;48.752;12.922;2022-09-23T15:40:44;1.33;;;0.57;;
4248;SDS011;8404;48.752;12.922;2022-09-23T15:43:13;1.65;;;0.95;;
4248;SDS011;8404;48.752;12.922;2022-09-23T15:45:47;2.35;;;0.93;;
4248;SDS011;8404;48.752;12.922;2022-09-23T15:48:18;1.80;;;0.90;;
4248;SDS011;8404;48.752;12.922;2022-09-23T15:50:49;1.50;;;0.90;;
4248;SDS011;8404;48.752;12.922;2022-09-23T15:53:21;1.92;;;0.90;;
4248;SDS011;8404;48.752;12.922;2022-09-23T15:55:51;1.88;;;0.80;;
4248;SDS011;8404;48.752;12.922;2022-09-23T15:58:20;0.88;;;0.65;;
4248;SDS011;8404;48.752;12.922;2022-09-23T16:00:49;1.63;;;0.90;;
4248;SDS011;8404;48.752;12.922;2022-09-23T16:03:22;1.58;;;1.00;;
4248;SDS011;8404;48.752;12.922;2022-09-23T16:05:54;1.83;;;0.70;;
4248;SDS011;8404;48.752;12.922;2022-09-23T16:08:28;1.52;;;0.60;;
4248;SDS011;8404;48.752;12.922;2022-09-23T16:10:58;1.20;;;0.70;;
4248;SDS011;8404;48.752;12.922;2022-09-23T16:13:27;1.23;;;0.60;;
4248;SDS011;8404;48.752;12.922;2022-09-23T16:15:55;1.55;;;0.90;;